sensor_id;sensor_type;location;lat;lon;timestamp;pressure;altitude;pressure_sealevel;temperature;humidity
74474;BME280;62922;-6.168;106.796;2023-04-24T00:01:14;100890.41;;;31.73;62.92
74474;BME280;62922;-6.168;106.796;2023-04-24T00:03:40;100889.56;;;31.73;62.93
74474;BME280;62922;-6.168;106.796;2023-04-24T00:06:06;100881.44;;;31.71;62.97
74474;BME280;62922;-6.168;106.796;2023-04-24T00:08:33;100889.56;;;31.73;62.88
74474;BME280;62922;-6.168;106.796;2023-04-24T00:10:59;100889.91;;;31.71;62.92
74474;BME280;62922;-6.168;106.796;2023-04-24T00:13:25;100889.91;;;31.71;63.07
74474;BME280;62922;-6.168;106.796;2023-04-24T00:15:55;100894.72;;;31.71;63.35
74474;BME280;62922;-6.168;106.796;2023-04-24T00:18:21;100892.22;;;31.69;63.30
74474;BME280;62922;-6.168;106.796;2023-04-24T00:20:47;100891.06;;;31.70;63.38
74474;BME280;62922;-6.168;106.796;2023-04-24T00:23:13;100895.56;;;31.71;63.34
74474;BME280;62922;-6.168;106.796;2023-04-24T00:25:39;100895.56;;;31.71;62.92
74474;BME280;62922;-6.168;106.796;2023-04-24T00:28:05;100894.72;;;31.71;63.49
74474;BME280;62922;-6.168;106.796;2023-04-24T00:30:31;100893.56;;;31.72;63.40
74474;BME280;62922;-6.168;106.796;2023-04-24T00:32:57;100889.91;;;31.71;63.26
74474;BME280;62922;-6.168;106.796;2023-04-24T00:35:23;100878.97;;;31.70;62.83
74474;BME280;62922;-6.168;106.796;2023-04-24T00:37:49;100887.91;;;31.72;63.16
74474;BME280;62922;-6.168;106.796;2023-04-24T00:40:15;100884.25;;;31.71;63.27
74474;BME280;62922;-6.168;106.796;2023-04-24T00:42:41;100891.53;;;31.72;63.37
74474;BME280;62922;-6.168;106.796;2023-04-24T00:45:07;100886.75;;;31.73;62.96
74474;BME280;62922;-6.168;106.796;2023-04-24T00:47:33;100877.44;;;31.72;62.93
74474;BME280;62922;-6.168;106.796;2023-04-24T00:50:01;100880.75;;;31.74;63.33
74474;BME280;62922;-6.168;106.796;2023-04-24T00:52:27;100887.56;;;31.73;63.13
74474;BME280;62922;-6.168;106.796;2023-04-24T00:54:53;100887.56;;;31.73;63.43
74474;BME280;62922;-6.168;106.796;2023-04-24T00:57:22;100881.59;;;31.75;63.28
74474;BME280;62922;-6.168;106.796;2023-04-24T00:59:48;100886.75;;;31.73;63.32
74474;BME280;62922;-6.168;106.796;2023-04-24T01:02:15;100893.72;;;31.75;63.49
74474;BME280;62922;-6.168;106.796;2023-04-24T01:04:40;100884.75;;;31.73;62.92
74474;BME280;62922;-6.168;106.796;2023-04-24T01:07:07;100894.53;;;31.76;63.38
74474;BME280;62922;-6.168;106.796;2023-04-24T01:09:37;100890.06;;;31.75;63.49
74474;BME280;62922;-6.168;106.796;2023-04-24T01:12:05;100889.72;;;31.76;63.12
74474;BME280;62922;-6.168;106.796;2023-04-24T01:14:31;100892.53;;;31.76;62.86
74474;BME280;62922;-6.168;106.796;2023-04-24T01:16:57;100894.53;;;31.76;62.84
74474;BME280;62922;-6.168;106.796;2023-04-24T01:19:23;100893.38;;;31.77;63.44
74474;BME280;62922;-6.168;106.796;2023-04-24T01:21:50;100888.56;;;31.77;62.85
74474;BME280;62922;-6.168;106.796;2023-04-24T01:24:17;100886.56;;;31.78;63.28
74474;BME280;62922;-6.168;106.796;2023-04-24T01:26:44;100888.22;;;31.79;63.15
74474;BME280;62922;-6.168;106.796;2023-04-24T01:29:13;100888.22;;;31.79;63.33
74474;BME280;62922;-6.168;106.796;2023-04-24T01:31:39;100893.88;;;31.79;63.04
74474;BME280;62922;-6.168;106.796;2023-04-24T01:34:05;100895.50;;;31.80;63.08
74474;BME280;62922;-6.168;106.796;2023-04-24T01:36:31;100898.34;;;31.80;63.10
74474;BME280;62922;-6.168;106.796;2023-04-24T01:39:01;100909.28;;;31.81;62.79
74474;BME280;62922;-6.168;106.796;2023-04-24T01:41:29;100897.19;;;31.81;62.63
74474;BME280;62922;-6.168;106.796;2023-04-24T01:43:55;100893.19;;;31.82;63.08
74474;BME280;62922;-6.168;106.796;2023-04-24T01:46:22;100893.19;;;31.82;62.79
74474;BME280;62922;-6.168;106.796;2023-04-24T01:48:48;100902.47;;;31.82;63.09
74474;BME280;62922;-6.168;106.796;2023-04-24T01:51:14;100900.50;;;31.83;63.23
74474;BME280;62922;-6.168;106.796;2023-04-24T01:53:40;100892.84;;;31.83;62.74
74474;BME280;62922;-6.168;106.796;2023-04-24T01:56:06;100892.53;;;31.85;62.73
74474;BME280;62922;-6.168;106.796;2023-04-24T01:58:32;100892.53;;;31.85;63.13
74474;BME280;62922;-6.168;106.796;2023-04-24T02:00:58;100895.81;;;31.87;63.11
74474;BME280;62922;-6.168;106.796;2023-04-24T02:03:26;100897.19;;;31.89;62.67
74474;BME280;62922;-6.168;106.796;2023-04-24T02:05:54;100895.19;;;31.90;62.76
74474;BME280;62922;-6.168;106.796;2023-04-24T02:08:20;100896.03;;;31.90;62.91
74474;BME280;62922;-6.168;106.796;2023-04-24T02:10:46;100887.22;;;31.92;62.93
74474;BME280;62922;-6.168;106.796;2023-04-24T02:13:11;100884.03;;;31.93;62.82
74474;BME280;62922;-6.168;106.796;2023-04-24T02:15:37;100880.03;;;31.94;62.85
74474;BME280;62922;-6.168;106.796;2023-04-24T02:18:03;100876.91;;;31.96;62.82
74474;BME280;62922;-6.168;106.796;2023-04-24T02:20:29;100886.69;;;31.98;63.06
74474;BME280;62922;-6.168;106.796;2023-04-24T02:22:55;100890.00;;;32.00;62.48
74474;BME280;62922;-6.168;106.796;2023-04-24T02:25:21;100880.84;;;32.03;62.98
74474;BME280;62922;-6.168;106.796;2023-04-24T02:27:47;100882.84;;;32.03;62.81
74474;BME280;62922;-6.168;106.796;2023-04-24T02:30:15;100881.31;;;32.05;62.69
74474;BME280;62922;-6.168;106.796;2023-04-24T02:32:41;100882.16;;;32.06;62.61
74474;BME280;62922;-6.168;106.796;2023-04-24T02:35:07;100875.03;;;32.08;62.42
74474;BME280;62922;-6.168;106.796;2023-04-24T02:37:33;100873.84;;;32.09;62.56
74474;BME280;62922;-6.168;106.796;2023-04-24T02:40:00;100885.63;;;32.11;62.24
74474;BME280;62922;-6.168;106.796;2023-04-24T02:42:26;100884.44;;;32.12;62.50
74474;BME280;62922;-6.168;106.796;2023-04-24T02:44:51;100892.59;;;32.14;62.19
74474;BME280;62922;-6.168;106.796;2023-04-24T02:47:17;100893.09;;;32.16;61.91
74474;BME280;62922;-6.168;106.796;2023-04-24T02:49:43;100891.06;;;32.16;62.05
74474;BME280;62922;-6.168;106.796;2023-04-24T02:52:09;100889.91;;;32.17;61.78
74474;BME280;62922;-6.168;106.796;2023-04-24T02:54:35;100888.72;;;32.18;61.72
74474;BME280;62922;-6.168;106.796;2023-04-24T02:57:01;100892.06;;;32.20;61.63
74474;BME280;62922;-6.168;106.796;2023-04-24T02:59:27;100896.56;;;32.21;61.71
74474;BME280;62922;-6.168;106.796;2023-04-24T03:01:54;100896.69;;;32.25;62.09
74474;BME280;62922;-6.168;106.796;2023-04-24T03:04:20;100889.88;;;32.26;61.66
74474;BME280;62922;-6.168;106.796;2023-04-24T03:06:46;100892.34;;;32.27;61.97
74474;BME280;62922;-6.168;106.796;2023-04-24T03:09:11;100880.38;;;32.30;61.91
74474;BME280;62922;-6.168;106.796;2023-04-24T03:11:40;100880.03;;;32.32;61.76
74474;BME280;62922;-6.168;106.796;2023-04-24T03:14:06;100881.34;;;32.34;61.79
74474;BME280;62922;-6.168;106.796;2023-04-24T03:16:32;100886.31;;;32.37;61.65
74474;BME280;62922;-6.168;106.796;2023-04-24T03:18:58;100879.47;;;32.38;61.08
74474;BME280;62922;-6.168;106.796;2023-04-24T03:21:27;100881.66;;;32.41;60.97
74474;BME280;62922;-6.168;106.796;2023-04-24T03:23:53;100876.16;;;32.45;60.76
74474;BME280;62922;-6.168;106.796;2023-04-24T03:26:21;100887.13;;;32.46;60.93
74474;BME280;62922;-6.168;106.796;2023-04-24T03:28:47;100873.47;;;32.48;60.37
74474;BME280;62922;-6.168;106.796;2023-04-24T03:31:13;100864.31;;;32.51;60.70
74474;BME280;62922;-6.168;106.796;2023-04-24T03:33:40;100871.28;;;32.54;60.33
74474;BME280;62922;-6.168;106.796;2023-04-24T03:36:06;100862.47;;;32.55;60.17
74474;BME280;62922;-6.168;106.796;2023-04-24T03:38:32;100862.59;;;32.59;60.84
74474;BME280;62922;-6.168;106.796;2023-04-24T03:40:58;100854.63;;;32.61;60.21
74474;BME280;62922;-6.168;106.796;2023-04-24T03:43:24;100842.13;;;32.62;60.61
74474;BME280;62922;-6.168;106.796;2023-04-24T03:45:50;100845.09;;;32.66;60.58
74474;BME280;62922;-6.168;106.796;2023-04-24T03:48:16;100844.41;;;32.69;59.51
74474;BME280;62922;-6.168;106.796;2023-04-24T03:50:42;100833.59;;;32.71;59.49
74474;BME280;62922;-6.168;106.796;2023-04-24T03:53:08;100832.91;;;32.74;59.85
74474;BME280;62922;-6.168;106.796;2023-04-24T03:55:33;100833.03;;;32.77;59.36
74474;BME280;62922;-6.168;106.796;2023-04-24T03:57:59;100827.03;;;32.79;59.13
74474;BME280;62922;-6.168;106.796;2023-04-24T04:00:26;100827.03;;;32.79;59.48
74474;BME280;62922;-6.168;106.796;2023-04-24T04:02:51;100830.34;;;32.81;58.92
74474;BME280;62922;-6.168;106.796;2023-04-24T04:05:17;100830.81;;;32.83;58.99
74474;BME280;62922;-6.168;106.796;2023-04-24T04:07:43;100822.00;;;32.84;58.89
74474;BME280;62922;-6.168;106.796;2023-04-24T04:10:09;100816.00;;;32.86;58.79
74474;BME280;62922;-6.168;106.796;2023-04-24T04:12:35;100820.50;;;32.87;59.25
74474;BME280;62922;-6.168;106.796;2023-04-24T04:15:01;100818.94;;;32.89;59.25
74474;BME280;62922;-6.168;106.796;2023-04-24T04:17:27;100805.47;;;32.95;59.11
74474;BME280;62922;-6.168;106.796;2023-04-24T04:19:57;100807.25;;;32.99;60.14
74474;BME280;62922;-6.168;106.796;2023-04-24T04:22:24;100796.44;;;33.01;60.47
74474;BME280;62922;-6.168;106.796;2023-04-24T04:24:50;100798.19;;;33.06;60.30
74474;BME280;62922;-6.168;106.796;2023-04-24T04:27:16;100793.50;;;33.10;61.28
74474;BME280;62922;-6.168;106.796;2023-04-24T04:29:44;100790.81;;;33.13;62.10
74474;BME280;62922;-6.168;106.796;2023-04-24T04:32:10;100785.28;;;33.17;63.58
74474;BME280;62922;-6.168;106.796;2023-04-24T04:34:38;100796.25;;;33.18;64.16
74474;BME280;62922;-6.168;106.796;2023-04-24T04:37:05;100785.28;;;33.17;64.39
74474;BME280;62922;-6.168;106.796;2023-04-24T04:39:31;100792.94;;;33.16;64.39
74474;BME280;62922;-6.168;106.796;2023-04-24T04:41:57;100787.28;;;33.16;64.20
74474;BME280;62922;-6.168;106.796;2023-04-24T04:44:23;100782.13;;;33.18;63.73
74474;BME280;62922;-6.168;106.796;2023-04-24T04:46:49;100780.56;;;33.21;63.73
74474;BME280;62922;-6.168;106.796;2023-04-24T04:49:18;100780.22;;;33.22;62.94
74474;BME280;62922;-6.168;106.796;2023-04-24T04:51:44;100781.06;;;33.23;63.28
74474;BME280;62922;-6.168;106.796;2023-04-24T04:54:12;100766.91;;;33.23;63.99
74474;BME280;62922;-6.168;106.796;2023-04-24T04:56:38;100752.06;;;33.26;63.58
74474;BME280;62922;-6.168;106.796;2023-04-24T04:59:04;100745.25;;;33.27;63.69
74474;BME280;62922;-6.168;106.796;2023-04-24T05:01:31;100751.38;;;33.29;62.79
74474;BME280;62922;-6.168;106.796;2023-04-24T05:03:57;100747.34;;;33.30;62.61
74474;BME280;62922;-6.168;106.796;2023-04-24T05:06:23;100747.00;;;33.31;62.50
74474;BME280;62922;-6.168;106.796;2023-04-24T05:08:49;100736.16;;;33.33;62.24
74474;BME280;62922;-6.168;106.796;2023-04-24T05:11:16;100733.81;;;33.35;62.24
74474;BME280;62922;-6.168;106.796;2023-04-24T05:13:42;100730.16;;;33.35;62.68
74474;BME280;62922;-6.168;106.796;2023-04-24T05:16:08;100723.81;;;33.38;62.42
74474;BME280;62922;-6.168;106.796;2023-04-24T05:18:35;100710.81;;;33.37;63.07
74474;BME280;62922;-6.168;106.796;2023-04-24T05:21:01;100706.84;;;33.38;62.66
74474;BME280;62922;-6.168;106.796;2023-04-24T05:23:27;100702.00;;;33.38;62.13
74474;BME280;62922;-6.168;106.796;2023-04-24T05:25:52;100696.00;;;33.40;62.41
74474;BME280;62922;-6.168;106.796;2023-04-24T05:28:18;100701.66;;;33.40;61.92
74474;BME280;62922;-6.168;106.796;2023-04-24T05:30:45;100687.16;;;33.41;61.70
74474;BME280;62922;-6.168;106.796;2023-04-24T05:33:11;100690.81;;;33.42;62.36
74474;BME280;62922;-6.168;106.796;2023-04-24T05:35:37;100692.09;;;33.44;62.08
74474;BME280;62922;-6.168;106.796;2023-04-24T05:38:05;100690.59;;;33.47;61.53
74474;BME280;62922;-6.168;106.796;2023-04-24T05:40:31;100688.25;;;33.49;61.20
74474;BME280;62922;-6.168;106.796;2023-04-24T05:42:56;100676.56;;;33.50;61.41
74474;BME280;62922;-6.168;106.796;2023-04-24T05:45:22;100673.75;;;33.50;61.30
74474;BME280;62922;-6.168;106.796;2023-04-24T05:47:48;100671.75;;;33.51;61.08
74474;BME280;62922;-6.168;106.796;2023-04-24T05:50:16;100666.09;;;33.51;61.38
74474;BME280;62922;-6.168;106.796;2023-04-24T05:52:42;100663.25;;;33.51;61.21
74474;BME280;62922;-6.168;106.796;2023-04-24T05:55:08;100665.38;;;33.54;61.23
74474;BME280;62922;-6.168;106.796;2023-04-24T05:57:34;100652.88;;;33.55;60.66
74474;BME280;62922;-6.168;106.796;2023-04-24T06:00:00;100654.16;;;33.58;60.86
74474;BME280;62922;-6.168;106.796;2023-04-24T06:02:26;100647.34;;;33.59;60.91
74474;BME280;62922;-6.168;106.796;2023-04-24T06:04:52;100656.28;;;33.61;60.54
74474;BME280;62922;-6.168;106.796;2023-04-24T06:07:19;100648.63;;;33.61;60.93
74474;BME280;62922;-6.168;106.796;2023-04-24T06:09:45;100650.28;;;33.62;61.00
74474;BME280;62922;-6.168;106.796;2023-04-24T06:12:11;100649.44;;;33.62;60.22
74474;BME280;62922;-6.168;106.796;2023-04-24T06:14:37;100652.38;;;33.65;60.37
74474;BME280;62922;-6.168;106.796;2023-04-24T06:17:03;100651.19;;;33.66;60.01
74474;BME280;62922;-6.168;106.796;2023-04-24T06:19:29;100652.84;;;33.67;59.98
74474;BME280;62922;-6.168;106.796;2023-04-24T06:21:57;100649.19;;;33.67;60.13
74474;BME280;62922;-6.168;106.796;2023-04-24T06:24:26;100642.00;;;33.69;60.07
74474;BME280;62922;-6.168;106.796;2023-04-24T06:26:52;100647.66;;;33.69;59.96
74474;BME280;62922;-6.168;106.796;2023-04-24T06:29:18;100646.47;;;33.70;59.97
74474;BME280;62922;-6.168;106.796;2023-04-24T06:31:44;100642.47;;;33.71;59.60
74474;BME280;62922;-6.168;106.796;2023-04-24T06:34:10;100635.63;;;33.72;59.51
74474;BME280;62922;-6.168;106.796;2023-04-24T06:36:36;100631.97;;;33.72;59.73
74474;BME280;62922;-6.168;106.796;2023-04-24T06:39:02;100625.50;;;33.71;59.65
74474;BME280;62922;-6.168;106.796;2023-04-24T06:41:28;100625.13;;;33.73;59.73
74474;BME280;62922;-6.168;106.796;2023-04-24T06:43:54;100623.13;;;33.73;59.79
74474;BME280;62922;-6.168;106.796;2023-04-24T06:46:20;100619.47;;;33.73;59.86
74474;BME280;62922;-6.168;106.796;2023-04-24T06:48:51;100617.13;;;33.75;59.77
74474;BME280;62922;-6.168;106.796;2023-04-24T06:51:23;100617.13;;;33.75;59.78
74474;BME280;62922;-6.168;106.796;2023-04-24T06:53:49;100617.13;;;33.75;59.58
74474;BME280;62922;-6.168;106.796;2023-04-24T06:56:15;100619.94;;;33.75;59.98
74474;BME280;62922;-6.168;106.796;2023-04-24T06:58:41;100626.06;;;33.77;60.27
74474;BME280;62922;-6.168;106.796;2023-04-24T07:01:10;100625.25;;;33.76;59.79
74474;BME280;62922;-6.168;106.796;2023-04-24T07:03:36;100622.88;;;33.78;59.48
74474;BME280;62922;-6.168;106.796;2023-04-24T07:06:02;100597.41;;;33.78;59.61
74474;BME280;62922;-6.168;106.796;2023-04-24T07:08:28;100593.75;;;33.78;59.11
74474;BME280;62922;-6.168;106.796;2023-04-24T07:10:56;100586.91;;;33.79;59.28
74474;BME280;62922;-6.168;106.796;2023-04-24T07:13:22;100582.06;;;33.79;59.27
74474;BME280;62922;-6.168;106.796;2023-04-24T07:15:48;100566.28;;;33.78;59.09
74474;BME280;62922;-6.168;106.796;2023-04-24T07:18:16;100568.75;;;33.80;59.16
74474;BME280;62922;-6.168;106.796;2023-04-24T07:20:42;100560.25;;;33.80;58.89
74474;BME280;62922;-6.168;106.796;2023-04-24T07:23:08;100563.91;;;33.80;59.43
74474;BME280;62922;-6.168;106.796;2023-04-24T07:25:34;100559.88;;;33.81;59.57
74474;BME280;62922;-6.168;106.796;2023-04-24T07:28:02;100566.00;;;33.83;58.97
74474;BME280;62922;-6.168;106.796;2023-04-24T07:30:29;100563.66;;;33.85;59.50
74474;BME280;62922;-6.168;106.796;2023-04-24T07:32:55;100569.31;;;33.85;58.89
74474;BME280;62922;-6.168;106.796;2023-04-24T07:35:21;100575.06;;;33.89;59.01
74474;BME280;62922;-6.168;106.796;2023-04-24T07:37:47;100571.41;;;33.88;58.79
74474;BME280;62922;-6.168;106.796;2023-04-24T07:40:13;100567.41;;;33.89;59.12
74474;BME280;62922;-6.168;106.796;2023-04-24T07:42:39;100577.53;;;33.90;59.25
74474;BME280;62922;-6.168;106.796;2023-04-24T07:45:05;100568.69;;;33.92;59.30
74474;BME280;62922;-6.168;106.796;2023-04-24T07:47:32;100563.50;;;33.94;59.12
74474;BME280;62922;-6.168;106.796;2023-04-24T07:49:58;100555.50;;;33.96;59.36
74474;BME280;62922;-6.168;106.796;2023-04-24T07:52:24;100544.63;;;33.98;59.34
74474;BME280;62922;-6.168;106.796;2023-04-24T07:54:50;100543.47;;;33.99;58.81
74474;BME280;62922;-6.168;106.796;2023-04-24T07:57:24;100538.59;;;33.99;58.91
74474;BME280;62922;-6.168;106.796;2023-04-24T07:59:50;100553.59;;;34.00;59.15
74474;BME280;62922;-6.168;106.796;2023-04-24T08:02:18;100556.06;;;34.01;58.70
74474;BME280;62922;-6.168;106.796;2023-04-24T08:04:44;100559.34;;;34.03;59.05
74474;BME280;62922;-6.168;106.796;2023-04-24T08:07:10;100563.38;;;34.02;58.90
74474;BME280;62922;-6.168;106.796;2023-04-24T08:09:38;100564.56;;;34.01;58.31
74474;BME280;62922;-6.168;106.796;2023-04-24T08:12:04;100565.38;;;34.02;58.51
74474;BME280;62922;-6.168;106.796;2023-04-24T08:14:30;100562.19;;;34.03;58.11
74474;BME280;62922;-6.168;106.796;2023-04-24T08:16:55;100559.81;;;34.05;58.62
74474;BME280;62922;-6.168;106.796;2023-04-24T08:19:24;100554.16;;;34.05;58.29
74474;BME280;62922;-6.168;106.796;2023-04-24T08:21:50;100561.50;;;34.06;57.97
74474;BME280;62922;-6.168;106.796;2023-04-24T08:24:16;100550.16;;;34.06;57.73
74474;BME280;62922;-6.168;106.796;2023-04-24T08:26:42;100551.44;;;34.09;58.31
74474;BME280;62922;-6.168;106.796;2023-04-24T08:29:08;100543.75;;;34.09;58.33
74474;BME280;62922;-6.168;106.796;2023-04-24T08:31:34;100534.06;;;34.10;57.88
74474;BME280;62922;-6.168;106.796;2023-04-24T08:34:00;100535.72;;;34.11;58.17
74474;BME280;62922;-6.168;106.796;2023-04-24T08:36:26;100543.03;;;34.12;58.36
74474;BME280;62922;-6.168;106.796;2023-04-24T08:38:52;100541.88;;;34.13;58.31
74474;BME280;62922;-6.168;106.796;2023-04-24T08:41:18;100554.00;;;34.14;57.81
74474;BME280;62922;-6.168;106.796;2023-04-24T08:43:45;100555.28;;;34.16;58.22
74474;BME280;62922;-6.168;106.796;2023-04-24T08:46:11;100556.13;;;34.17;58.19
74474;BME280;62922;-6.168;106.796;2023-04-24T08:48:38;100556.91;;;34.17;58.29
74474;BME280;62922;-6.168;106.796;2023-04-24T08:51:07;100564.63;;;34.17;58.09
74474;BME280;62922;-6.168;106.796;2023-04-24T08:53:34;100569.09;;;34.18;57.65
74474;BME280;62922;-6.168;106.796;2023-04-24T08:56:01;100569.09;;;34.18;57.82
74474;BME280;62922;-6.168;106.796;2023-04-24T08:58:27;100566.63;;;34.16;58.01
74474;BME280;62922;-6.168;106.796;2023-04-24T09:00:54;100575.94;;;34.17;57.70
74474;BME280;62922;-6.168;106.796;2023-04-24T09:03:21;100571.91;;;34.18;57.33
74474;BME280;62922;-6.168;106.796;2023-04-24T09:05:48;100568.25;;;34.17;57.60
74474;BME280;62922;-6.168;106.796;2023-04-24T09:08:18;100570.28;;;34.17;57.90
74474;BME280;62922;-6.168;106.796;2023-04-24T09:10:46;100575.13;;;34.16;57.95
74474;BME280;62922;-6.168;106.796;2023-04-24T09:13:12;100581.25;;;34.18;57.86
74474;BME280;62922;-6.168;106.796;2023-04-24T09:15:39;100582.41;;;34.17;58.22
74474;BME280;62922;-6.168;106.796;2023-04-24T09:18:05;100580.41;;;34.18;57.76
74474;BME280;62922;-6.168;106.796;2023-04-24T09:20:32;100592.94;;;34.17;58.30
74474;BME280;62922;-6.168;106.796;2023-04-24T09:22:58;100597.78;;;34.16;58.34
74474;BME280;62922;-6.168;106.796;2023-04-24T09:25:35;100605.06;;;34.17;58.34
74474;BME280;62922;-6.168;106.796;2023-04-24T09:28:02;100607.09;;;34.17;58.15
74474;BME280;62922;-6.168;106.796;2023-04-24T09:30:29;100614.75;;;34.16;58.21
74474;BME280;62922;-6.168;106.796;2023-04-24T09:35:41;100626.94;;;34.17;58.56
74474;BME280;62922;-6.168;106.796;2023-04-24T09:38:08;100623.25;;;34.16;58.42
74474;BME280;62922;-6.168;106.796;2023-04-24T09:40:34;100620.91;;;34.18;58.53
74474;BME280;62922;-6.168;106.796;2023-04-24T09:43:01;100626.56;;;34.18;58.59
74474;BME280;62922;-6.168;106.796;2023-04-24T09:45:28;100623.72;;;34.18;58.12
74474;BME280;62922;-6.168;106.796;2023-04-24T09:47:54;100639.06;;;34.17;58.66
74474;BME280;62922;-6.168;106.796;2023-04-24T09:50:21;100634.59;;;34.16;58.80
74474;BME280;62922;-6.168;106.796;2023-04-24T09:52:56;100647.13;;;34.15;58.24
74474;BME280;62922;-6.168;106.796;2023-04-24T09:55:22;100654.06;;;34.18;59.00
74474;BME280;62922;-6.168;106.796;2023-04-24T09:57:48;100667.84;;;34.19;58.93
74474;BME280;62922;-6.168;106.796;2023-04-24T10:00:17;100658.56;;;34.19;59.38
74474;BME280;62922;-6.168;106.796;2023-04-24T10:05:10;100667.28;;;34.14;58.95
74474;BME280;62922;-6.168;106.796;2023-04-24T10:07:37;100677.44;;;34.15;58.82
74474;BME280;62922;-6.168;106.796;2023-04-24T10:10:06;100680.63;;;34.13;59.52
74474;BME280;62922;-6.168;106.796;2023-04-24T10:12:32;100687.94;;;34.14;59.24
74474;BME280;62922;-6.168;106.796;2023-04-24T10:14:58;100687.09;;;34.14;59.38
74474;BME280;62922;-6.168;106.796;2023-04-24T10:17:27;100699.75;;;34.16;59.03
74474;BME280;62922;-6.168;106.796;2023-04-24T10:19:54;100686.31;;;34.13;59.30
74474;BME280;62922;-6.168;106.796;2023-04-24T10:22:20;100691.13;;;34.13;59.36
74474;BME280;62922;-6.168;106.796;2023-04-24T10:24:47;100699.25;;;34.14;59.37
74474;BME280;62922;-6.168;106.796;2023-04-24T10:27:13;100695.59;;;34.14;59.24
74474;BME280;62922;-6.168;106.796;2023-04-24T10:29:40;100680.63;;;34.13;59.15
74474;BME280;62922;-6.168;106.796;2023-04-24T10:32:08;100689.50;;;34.12;59.47
74474;BME280;62922;-6.168;106.796;2023-04-24T10:34:35;100694.81;;;34.13;59.09
74474;BME280;62922;-6.168;106.796;2023-04-24T10:37:01;100707.28;;;34.12;59.29
74474;BME280;62922;-6.168;106.796;2023-04-24T10:39:28;100723.47;;;34.12;59.57
74474;BME280;62922;-6.168;106.796;2023-04-24T10:41:56;100731.16;;;34.11;59.75
74474;BME280;62922;-6.168;106.796;2023-04-24T10:44:23;100731.16;;;34.11;59.80
74474;BME280;62922;-6.168;106.796;2023-04-24T10:46:53;100729.47;;;34.10;59.53
74474;BME280;62922;-6.168;106.796;2023-04-24T10:49:27;100732.31;;;34.10;59.45
74474;BME280;62922;-6.168;106.796;2023-04-24T10:51:53;100737.97;;;34.10;59.78
74474;BME280;62922;-6.168;106.796;2023-04-24T10:56:50;100739.53;;;34.08;59.42
74474;BME280;62922;-6.168;106.796;2023-04-24T10:59:35;100738.69;;;34.07;59.87
74474;BME280;62922;-6.168;106.796;2023-04-24T11:02:02;100752.03;;;34.07;59.29
74474;BME280;62922;-6.168;106.796;2023-04-24T11:04:29;100762.56;;;34.06;59.65
74474;BME280;62922;-6.168;106.796;2023-04-24T11:06:55;100759.72;;;34.06;59.94
74474;BME280;62922;-6.168;106.796;2023-04-24T11:09:22;100777.50;;;34.07;59.90
74474;BME280;62922;-6.168;106.796;2023-04-24T11:11:48;100778.34;;;34.07;59.70
74474;BME280;62922;-6.168;106.796;2023-04-24T11:14:14;100772.31;;;34.09;59.44
74474;BME280;62922;-6.168;106.796;2023-04-24T11:26:39;100766.28;;;34.10;59.50
74474;BME280;62922;-6.168;106.796;2023-04-24T11:29:06;100761.00;;;34.09;60.12
74474;BME280;62922;-6.168;106.796;2023-04-24T11:31:37;100759.34;;;34.08;59.79
74474;BME280;62922;-6.168;106.796;2023-04-24T11:36:33;100763.81;;;34.09;59.79
74474;BME280;62922;-6.168;106.796;2023-04-24T11:39:00;100761.34;;;34.07;60.07
74474;BME280;62922;-6.168;106.796;2023-04-24T11:41:28;100769.84;;;34.07;60.28
74474;BME280;62922;-6.168;106.796;2023-04-24T11:43:54;100771.50;;;34.08;59.99
74474;BME280;62922;-6.168;106.796;2023-04-24T11:46:21;100776.34;;;34.08;59.98
74474;BME280;62922;-6.168;106.796;2023-04-24T11:48:49;100780.34;;;34.07;60.42
74474;BME280;62922;-6.168;106.796;2023-04-24T11:51:15;100778.72;;;34.06;60.56
74474;BME280;62922;-6.168;106.796;2023-04-24T11:53:41;100793.69;;;34.06;59.99
74474;BME280;62922;-6.168;106.796;2023-04-24T11:56:08;100800.53;;;34.05;60.48
74474;BME280;62922;-6.168;106.796;2023-04-24T11:58:36;100815.88;;;34.04;60.47
74474;BME280;62922;-6.168;106.796;2023-04-24T12:01:02;100837.34;;;34.05;60.33
74474;BME280;62922;-6.168;106.796;2023-04-24T12:03:28;100850.66;;;34.05;60.70
74474;BME280;62922;-6.168;106.796;2023-04-24T12:08:31;100879.81;;;34.05;60.77
74474;BME280;62922;-6.168;106.796;2023-04-24T12:10:57;100876.53;;;34.03;60.54
74474;BME280;62922;-6.168;106.796;2023-04-24T12:13:27;100885.84;;;34.04;60.52
74474;BME280;62922;-6.168;106.796;2023-04-24T12:15:52;100885.84;;;34.04;60.68
74474;BME280;62922;-6.168;106.796;2023-04-24T12:18:21;100894.34;;;34.04;60.60
74474;BME280;62922;-6.168;106.796;2023-04-24T12:20:47;100892.69;;;34.03;60.77
74474;BME280;62922;-6.168;106.796;2023-04-24T12:23:13;100891.88;;;34.02;60.70
74474;BME280;62922;-6.168;106.796;2023-04-24T12:25:39;100891.03;;;34.02;60.80
74474;BME280;62922;-6.168;106.796;2023-04-24T12:30:35;100893.03;;;34.01;60.78
74474;BME280;62922;-6.168;106.796;2023-04-24T12:33:02;100907.56;;;34.00;60.94
74474;BME280;62922;-6.168;106.796;2023-04-24T12:35:29;100915.22;;;33.99;60.87
74474;BME280;62922;-6.168;106.796;2023-04-24T12:38:15;100932.19;;;33.99;61.22
74474;BME280;62922;-6.168;106.796;2023-04-24T12:40:41;100938.69;;;34.00;61.28
74474;BME280;62922;-6.168;106.796;2023-04-24T12:43:18;100939.53;;;34.00;61.28
74474;BME280;62922;-6.168;106.796;2023-04-24T12:45:44;100937.88;;;33.99;61.25
74474;BME280;62922;-6.168;106.796;2023-04-24T12:48:11;100937.38;;;33.97;60.94
74474;BME280;62922;-6.168;106.796;2023-04-24T12:50:37;100945.06;;;33.97;61.46
74474;BME280;62922;-6.168;106.796;2023-04-24T12:53:03;100952.75;;;33.96;61.50